createdAt,value
2023-02-11T00:00:41.776Z,27.23
2023-02-11T00:03:09.079Z,25.53
2023-02-11T00:05:35.714Z,25.80
2023-02-11T00:08:02.227Z,23.93
2023-02-11T00:10:28.730Z,23.83
2023-02-11T00:12:55.316Z,23.00
2023-02-11T00:15:21.838Z,24.10
2023-02-11T00:17:48.324Z,21.70
2023-02-11T00:20:15.151Z,21.13
2023-02-11T00:22:41.665Z,20.17
2023-02-11T00:25:08.305Z,18.93
2023-02-11T00:27:36.855Z,18.67
2023-02-11T00:30:05.312Z,19.07
2023-02-11T00:32:32.024Z,17.93
2023-02-11T00:34:58.534Z,17.87
2023-02-11T00:37:24.989Z,16.47
2023-02-11T00:39:51.552Z,17.80
2023-02-11T00:42:18.050Z,18.27
2023-02-11T00:44:44.573Z,17.57
2023-02-11T00:47:11.019Z,17.43
2023-02-11T00:49:39.595Z,17.17
2023-02-11T00:52:06.140Z,17.53
2023-02-11T00:54:32.621Z,17.07
2023-02-11T00:56:59.047Z,18.27
2023-02-11T00:59:25.617Z,16.30
2023-02-11T01:01:52.062Z,16.17
2023-02-11T01:04:18.555Z,16.17
2023-02-11T01:06:45.034Z,17.13
2023-02-11T01:09:11.686Z,16.70
2023-02-11T01:11:38.139Z,16.80
2023-02-11T01:14:04.769Z,17.10
2023-02-11T01:16:31.301Z,15.40
2023-02-11T01:18:58.879Z,16.30
2023-02-11T01:21:25.855Z,17.17
2023-02-11T01:23:52.783Z,15.97
2023-02-11T01:26:19.294Z,15.93
2023-02-11T01:28:45.833Z,15.50
2023-02-11T01:31:12.922Z,16.57
2023-02-11T01:33:40.030Z,16.20
2023-02-11T01:36:07.425Z,16.07
2023-02-11T01:38:34.349Z,16.57
2023-02-11T01:41:07.119Z,15.40
2023-02-11T01:43:37.629Z,14.87
2023-02-11T01:46:29.904Z,14.97
2023-02-11T01:49:01.669Z,15.00
2023-02-11T01:51:33.391Z,14.73
2023-02-11T01:54:19.587Z,16.17
2023-02-11T01:57:08.558Z,14.73
2023-02-11T01:59:41.480Z,15.30
2023-02-11T02:02:10.940Z,15.30
2023-02-11T02:04:46.780Z,15.23
2023-02-11T02:07:19.548Z,14.93
2023-02-11T02:09:50.016Z,16.23
2023-02-11T02:12:16.486Z,15.60
2023-02-11T02:14:42.999Z,15.97
2023-02-11T02:17:37.051Z,16.03
2023-02-11T02:20:29.296Z,16.57
2023-02-11T02:23:23.649Z,16.87
2023-02-11T02:25:58.179Z,14.83
2023-02-11T02:29:02.630Z,15.70
2023-02-11T02:31:40.952Z,16.67
2023-02-11T02:34:16.021Z,15.80
2023-02-11T02:37:03.831Z,15.70
2023-02-11T02:39:34.096Z,15.33
2023-02-11T02:42:00.951Z,17.43
2023-02-11T02:44:28.246Z,15.80
2023-02-11T02:46:54.890Z,16.37
2023-02-11T02:49:21.385Z,15.63
2023-02-11T02:52:10.452Z,15.37
2023-02-11T02:55:14.396Z,15.70
2023-02-11T02:58:03.258Z,14.50
2023-02-11T03:00:32.551Z,14.43
2023-02-11T03:03:07.592Z,14.70
2023-02-11T03:05:52.510Z,14.80
2023-02-11T03:08:51.345Z,15.03
2023-02-11T03:11:19.315Z,15.40
2023-02-11T03:13:46.925Z,14.40
2023-02-11T03:16:23.409Z,14.77
2023-02-11T03:18:54.131Z,14.63
2023-02-11T03:21:20.934Z,15.27
2023-02-11T03:23:53.990Z,13.90
2023-02-11T03:26:28.992Z,14.17
2023-02-11T03:29:20.062Z,14.70
2023-02-11T03:31:57.819Z,13.30
2023-02-11T03:34:50.859Z,13.27
2023-02-11T03:37:21.557Z,13.53
2023-02-11T03:39:52.829Z,13.40
2023-02-11T03:42:19.561Z,14.00
2023-02-11T03:44:56.611Z,13.80
2023-02-11T03:47:25.378Z,13.23
2023-02-11T03:49:53.826Z,13.17
2023-02-11T03:52:21.002Z,14.13
2023-02-11T03:54:50.421Z,13.20
2023-02-11T03:57:16.951Z,14.53
2023-02-11T03:59:55.542Z,14.67
2023-02-11T04:02:24.259Z,14.93
2023-02-11T04:04:50.985Z,14.53
2023-02-11T04:07:17.470Z,15.30
2023-02-11T04:09:43.916Z,14.83
2023-02-11T04:12:10.386Z,14.80
2023-02-11T04:14:36.845Z,15.33
2023-02-11T04:17:03.652Z,15.13
2023-02-11T04:19:30.142Z,15.80
2023-02-11T04:21:57.225Z,15.93
2023-02-11T04:24:23.692Z,16.27
2023-02-11T04:26:50.160Z,16.37
2023-02-11T04:29:16.660Z,15.53
2023-02-11T04:31:43.197Z,17.80
2023-02-11T04:34:09.711Z,18.10
2023-02-11T04:36:36.265Z,18.17
2023-02-11T04:39:03.270Z,17.40
2023-02-11T04:41:29.862Z,18.00
2023-02-11T04:43:56.388Z,18.13
2023-02-11T04:46:22.933Z,18.43
2023-02-11T04:48:49.512Z,18.70
2023-02-11T04:51:16.372Z,17.60
2023-02-11T04:53:42.911Z,18.03
2023-02-11T04:56:09.400Z,19.30
2023-02-11T04:58:35.861Z,18.77
2023-02-11T05:01:09.875Z,18.50
2023-02-11T05:03:36.765Z,18.30
2023-02-11T05:06:03.783Z,18.70
2023-02-11T05:08:30.414Z,18.73
2023-02-11T05:10:57.024Z,19.47
2023-02-11T05:13:23.750Z,18.77
2023-02-11T05:15:50.652Z,19.03
2023-02-11T05:18:17.342Z,20.07
2023-02-11T05:20:44.443Z,18.50
2023-02-11T05:23:11.786Z,18.03
2023-02-11T05:25:38.475Z,19.07
2023-02-11T05:28:05.465Z,19.33
2023-02-11T05:30:32.259Z,18.47
2023-02-11T05:32:58.992Z,19.73
2023-02-11T05:35:25.422Z,18.87
2023-02-11T05:37:51.959Z,18.33
2023-02-11T05:40:18.547Z,18.17
2023-02-11T05:42:44.984Z,19.67
2023-02-11T05:45:11.783Z,19.43
2023-02-11T05:47:38.225Z,18.53
2023-02-11T05:50:04.825Z,20.07
2023-02-11T05:52:31.351Z,19.73
2023-02-11T05:54:57.962Z,19.27
2023-02-11T05:57:24.470Z,19.23
2023-02-11T05:59:51.041Z,19.77
2023-02-11T06:02:17.628Z,19.20
2023-02-11T06:04:44.362Z,17.40
2023-02-11T06:07:10.915Z,17.93
2023-02-11T06:09:37.813Z,18.33
2023-02-11T06:12:04.576Z,18.30
2023-02-11T06:14:33.773Z,19.13
2023-02-11T06:17:00.490Z,17.50
2023-02-11T06:19:27.039Z,20.13
2023-02-11T06:21:53.482Z,18.83
2023-02-11T06:24:38.402Z,19.73
2023-02-11T06:27:06.486Z,20.60
2023-02-11T06:29:33.243Z,18.93
2023-02-11T06:31:59.926Z,19.03
2023-02-11T06:34:26.500Z,20.60
2023-02-11T06:36:53.038Z,20.03
2023-02-11T06:39:19.630Z,20.37
2023-02-11T06:41:46.237Z,20.67
2023-02-11T06:44:13.459Z,20.30
2023-02-11T06:46:40.054Z,19.93
2023-02-11T06:49:06.754Z,22.10
2023-02-11T06:51:33.661Z,20.93
2023-02-11T06:54:00.195Z,21.53
2023-02-11T06:56:27.531Z,21.87
2023-02-11T06:58:55.457Z,21.87
2023-02-11T07:01:22.585Z,21.87
2023-02-11T07:03:49.994Z,22.37
2023-02-11T07:06:20.032Z,21.63
2023-02-11T07:08:47.249Z,22.17
2023-02-11T07:11:24.340Z,21.30
2023-02-11T07:13:51.286Z,22.93
2023-02-11T07:16:18.673Z,23.73
2023-02-11T07:18:46.105Z,24.80
2023-02-11T07:21:14.891Z,24.43
2023-02-11T07:23:41.928Z,24.03
2023-02-11T07:26:12.012Z,24.37
2023-02-11T07:28:39.219Z,23.57
2023-02-11T07:31:10.165Z,23.53
2023-02-11T07:33:37.181Z,26.67
2023-02-11T07:36:05.289Z,26.90
2023-02-11T07:38:32.581Z,28.20
2023-02-11T07:41:03.480Z,27.97
2023-02-11T07:43:31.134Z,28.07
2023-02-11T07:45:57.807Z,27.20
2023-02-11T07:48:24.409Z,28.63
2023-02-11T07:50:50.945Z,29.20
2023-02-11T07:53:17.444Z,28.80
2023-02-11T07:55:44.093Z,27.53
2023-02-11T07:58:10.597Z,28.13
2023-02-11T08:00:37.237Z,28.23
2023-02-11T08:03:03.919Z,27.83
2023-02-11T08:05:30.609Z,29.60
2023-02-11T08:07:57.126Z,28.80
2023-02-11T08:10:23.734Z,29.10
2023-02-11T08:12:50.223Z,28.90
2023-02-11T08:15:16.686Z,29.07
2023-02-11T08:17:43.193Z,30.57
2023-02-11T08:20:10.188Z,31.40
2023-02-11T08:22:36.751Z,33.23
2023-02-11T08:25:03.409Z,32.43
2023-02-11T08:27:29.990Z,31.00
2023-02-11T08:29:56.676Z,35.47
2023-02-11T08:32:25.505Z,35.10
2023-02-11T08:34:52.674Z,34.20
2023-02-11T08:37:19.653Z,33.83
2023-02-11T08:39:47.337Z,37.60
2023-02-11T08:42:15.592Z,34.27
2023-02-11T08:44:42.116Z,35.77
2023-02-11T08:47:08.622Z,34.73
2023-02-11T08:49:35.241Z,33.70
2023-02-11T08:52:04.102Z,36.13
2023-02-11T08:54:31.552Z,38.23
2023-02-11T08:56:58.150Z,36.70
2023-02-11T08:59:24.662Z,37.87
2023-02-11T09:01:51.278Z,35.00
2023-02-11T09:04:17.950Z,34.83
2023-02-11T09:06:44.735Z,35.60
2023-02-11T09:09:14.859Z,32.53
2023-02-11T09:11:43.507Z,34.30
2023-02-11T09:14:17.352Z,34.63
2023-02-11T09:16:43.932Z,34.20
2023-02-11T09:19:10.836Z,33.53
2023-02-11T09:21:37.330Z,33.80
2023-02-11T09:24:04.031Z,32.43
2023-02-11T09:26:32.962Z,32.27
2023-02-11T09:29:00.301Z,34.73
2023-02-11T09:31:28.933Z,33.83
2023-02-11T09:33:58.282Z,32.33
2023-02-11T09:36:27.031Z,32.27
2023-02-11T09:38:53.584Z,35.10
2023-02-11T09:41:22.867Z,33.07
2023-02-11T09:43:52.338Z,34.03
2023-02-11T09:46:20.326Z,31.93
2023-02-11T09:48:48.150Z,33.10
2023-02-11T09:51:48.309Z,34.10
2023-02-11T09:54:30.378Z,35.40
2023-02-11T09:56:56.956Z,35.03
2023-02-11T09:59:23.536Z,37.23
2023-02-11T10:01:57.913Z,38.73
2023-02-11T10:04:51.615Z,37.90
2023-02-11T10:08:17.020Z,39.57
2023-02-11T10:11:00.020Z,38.67
2023-02-11T10:13:45.100Z,39.87
2023-02-11T10:16:26.618Z,39.70
2023-02-11T10:19:11.772Z,37.00
2023-02-11T10:21:56.600Z,40.77
2023-02-11T10:24:23.299Z,40.83
2023-02-11T10:26:51.300Z,41.30
2023-02-11T10:29:40.030Z,40.23
2023-02-11T10:32:27.281Z,41.63
2023-02-11T10:34:56.374Z,42.67
2023-02-11T10:37:22.886Z,41.43
2023-02-11T10:39:49.340Z,42.97
2023-02-11T10:42:15.949Z,42.10
2023-02-11T10:44:58.268Z,44.37
2023-02-11T10:47:28.017Z,44.87
2023-02-11T10:49:54.900Z,43.93
2023-02-11T10:52:27.492Z,45.73
2023-02-11T10:55:01.803Z,44.77
2023-02-11T10:57:32.464Z,44.23
2023-02-11T11:00:21.044Z,44.80
2023-02-11T11:02:54.500Z,45.03
2023-02-11T11:05:27.144Z,43.60
2023-02-11T11:07:55.839Z,43.00
2023-02-11T11:10:47.013Z,43.93
2023-02-11T11:13:28.722Z,44.40
2023-02-11T11:16:13.668Z,43.87
2023-02-11T11:18:41.695Z,43.10
2023-02-11T11:21:15.361Z,44.90
2023-02-11T11:23:48.402Z,45.43
2023-02-11T11:26:15.865Z,46.73
2023-02-11T11:29:02.934Z,45.63
2023-02-11T11:31:35.935Z,44.67
2023-02-11T11:34:32.405Z,46.90
2023-02-11T11:37:00.757Z,45.57
2023-02-11T11:39:32.077Z,48.37
2023-02-11T11:42:05.564Z,47.30
2023-02-11T11:44:33.894Z,46.83
2023-02-11T11:47:13.424Z,48.33
2023-02-11T11:50:02.857Z,48.00
2023-02-11T11:52:32.012Z,48.73
2023-02-11T11:55:03.655Z,48.47
2023-02-11T11:57:31.394Z,50.43
2023-02-11T11:59:58.218Z,49.00
2023-02-11T12:03:03.606Z,48.87
2023-02-11T12:05:51.574Z,49.63
2023-02-11T12:08:27.121Z,52.00
2023-02-11T12:11:11.198Z,52.50
2023-02-11T12:13:53.176Z,52.77
2023-02-11T12:16:28.657Z,52.90
2023-02-11T12:19:26.833Z,53.47
2023-02-11T12:21:59.189Z,53.03
2023-02-11T12:24:43.423Z,53.47
2023-02-11T12:27:26.694Z,53.23
2023-02-11T12:30:04.644Z,52.60
2023-02-11T12:32:52.976Z,53.67
2023-02-11T12:35:22.450Z,52.87
2023-02-11T12:37:54.766Z,51.57
2023-02-11T12:40:25.274Z,54.00
2023-02-11T12:43:16.507Z,52.17
2023-02-11T12:46:01.448Z,51.03
2023-02-11T12:48:46.529Z,53.70
2023-02-11T12:51:24.723Z,51.13
2023-02-11T12:54:06.972Z,50.77
2023-02-11T12:56:46.814Z,52.63
2023-02-11T12:59:28.176Z,50.37
2023-02-11T13:01:55.836Z,48.63
2023-02-11T13:04:37.730Z,49.33
2023-02-11T13:07:28.804Z,50.17
2023-02-11T13:10:02.083Z,49.47
2023-02-11T13:13:05.246Z,51.00
2023-02-11T13:15:31.960Z,49.60
2023-02-11T13:18:06.908Z,49.87
2023-02-11T13:20:40.510Z,48.70
2023-02-11T13:23:13.036Z,49.90
2023-02-11T13:26:10.965Z,47.93
2023-02-11T13:29:05.163Z,50.53
2023-02-11T13:31:32.269Z,46.10
2023-02-11T13:33:58.913Z,51.40
2023-02-11T13:36:27.354Z,49.80
2023-02-11T13:38:55.182Z,47.93
2023-02-11T13:41:33.776Z,50.20
2023-02-11T13:44:03.391Z,51.77
2023-02-11T13:46:53.849Z,48.80
2023-02-11T13:49:32.202Z,50.37
2023-02-11T13:52:00.061Z,50.17
2023-02-11T13:54:31.179Z,52.10
2023-02-11T13:57:19.333Z,51.17
2023-02-11T13:59:57.162Z,53.40
2023-02-11T14:02:46.676Z,51.37
2023-02-11T14:05:42.235Z,54.43
2023-02-11T14:08:30.245Z,51.63
2023-02-11T14:10:57.432Z,51.90
2023-02-11T14:13:36.431Z,52.13
2023-02-11T14:16:31.689Z,54.30
2023-02-11T14:19:06.243Z,54.67
2023-02-11T14:21:38.303Z,51.70
2023-02-11T14:24:05.009Z,52.33
2023-02-11T14:26:41.622Z,53.30
2023-02-11T14:29:17.571Z,51.77
2023-02-11T14:31:57.931Z,51.73
2023-02-11T14:34:58.867Z,50.83
2023-02-11T14:38:05.180Z,52.30
2023-02-11T14:41:13.240Z,51.97
2023-02-11T14:43:43.068Z,48.80
2023-02-11T14:46:09.924Z,50.33
2023-02-11T14:48:38.111Z,48.23
2023-02-11T14:51:16.238Z,48.70
2023-02-11T14:53:45.342Z,49.50
2023-02-11T14:56:28.074Z,48.50
2023-02-11T14:58:55.273Z,49.23
2023-02-11T15:01:36.721Z,48.17
2023-02-11T15:04:05.495Z,53.07
2023-02-11T15:06:42.978Z,50.73
2023-02-11T15:09:24.081Z,51.23
2023-02-11T15:11:52.534Z,49.97
2023-02-11T15:14:33.523Z,52.13
2023-02-11T15:17:05.737Z,52.17
2023-02-11T15:19:37.683Z,52.33
2023-02-11T15:22:06.683Z,49.80
2023-02-11T15:24:35.443Z,51.07
2023-02-11T15:27:16.341Z,51.63
2023-02-11T15:29:49.356Z,52.03
2023-02-11T15:32:24.683Z,51.83
2023-02-11T15:34:53.342Z,50.97
2023-02-11T15:37:24.024Z,48.70
2023-02-11T15:39:51.824Z,49.77
2023-02-11T15:42:19.530Z,49.43
2023-02-11T15:44:47.960Z,47.87
2023-02-11T15:47:21.355Z,50.40
2023-02-11T15:49:48.587Z,49.60
2023-02-11T15:52:22.445Z,49.80
2023-02-11T15:54:49.061Z,48.43
2023-02-11T15:57:16.380Z,46.80
2023-02-11T15:59:50.655Z,46.83
2023-02-11T16:02:22.460Z,46.23
2023-02-11T16:04:54.704Z,47.33
2023-02-11T16:07:46.834Z,47.27
2023-02-11T16:10:18.078Z,45.10
2023-02-11T16:12:56.632Z,44.40
2023-02-11T16:15:56.813Z,45.60
2023-02-11T16:18:37.800Z,45.13
2023-02-11T16:21:07.895Z,40.57
2023-02-11T16:23:38.708Z,40.00
2023-02-11T16:26:32.639Z,43.57
2023-02-11T16:29:05.085Z,42.63
2023-02-11T16:31:36.970Z,41.50
2023-02-11T16:34:11.062Z,43.10
2023-02-11T16:36:37.517Z,42.23
2023-02-11T16:39:04.144Z,41.63
2023-02-11T16:41:30.681Z,41.60
2023-02-11T16:43:58.393Z,42.43
2023-02-11T16:46:24.982Z,41.50
2023-02-11T16:48:51.473Z,40.57
2023-02-11T16:51:18.130Z,42.23
2023-02-11T16:53:44.652Z,38.73
2023-02-11T16:56:18.092Z,39.73
2023-02-11T16:58:45.048Z,39.97
2023-02-11T17:01:13.942Z,38.77
2023-02-11T17:03:41.041Z,40.23
2023-02-11T17:06:09.733Z,38.90
2023-02-11T17:08:36.259Z,40.47
2023-02-11T17:11:03.364Z,38.70
2023-02-11T17:13:29.861Z,37.40
2023-02-11T17:15:57.218Z,39.43
2023-02-11T17:18:23.736Z,37.33
2023-02-11T17:20:50.338Z,36.00
2023-02-11T17:23:16.811Z,38.30
2023-02-11T17:25:43.364Z,36.07
2023-02-11T17:28:12.031Z,36.60
2023-02-11T17:30:41.320Z,34.17
2023-02-11T17:33:07.836Z,35.47
2023-02-11T17:35:34.278Z,34.67
2023-02-11T17:38:01.447Z,34.27
2023-02-11T17:40:27.948Z,33.23
2023-02-11T17:42:54.472Z,31.60
2023-02-11T17:45:22.342Z,30.77
2023-02-11T17:47:49.467Z,32.30
2023-02-11T17:50:16.139Z,32.13
2023-02-11T17:52:42.803Z,32.07
2023-02-11T17:55:09.338Z,36.30
2023-02-11T17:57:36.511Z,50.10
2023-02-11T18:00:05.129Z,40.97
2023-02-11T18:02:31.685Z,31.67
2023-02-11T18:04:58.786Z,30.60
2023-02-11T18:07:26.391Z,30.57
2023-02-11T18:09:53.306Z,29.40
2023-02-11T18:12:26.288Z,31.20
2023-02-11T18:14:56.118Z,31.03
2023-02-11T18:17:24.150Z,29.33
2023-02-11T18:19:50.809Z,29.90
2023-02-11T18:22:17.938Z,29.77
2023-02-11T18:24:44.495Z,29.87
2023-02-11T18:27:11.012Z,28.13
2023-02-11T18:29:37.933Z,27.13
2023-02-11T18:32:04.633Z,26.50
2023-02-11T18:34:31.689Z,24.60
2023-02-11T18:36:58.204Z,23.77
2023-02-11T18:39:26.410Z,25.20
2023-02-11T18:41:59.779Z,24.00
2023-02-11T18:44:26.814Z,23.30
2023-02-11T18:46:53.506Z,22.93
2023-02-11T18:49:20.802Z,22.40
2023-02-11T18:51:47.416Z,20.40
2023-02-11T18:54:13.956Z,20.60
2023-02-11T18:56:40.881Z,20.50
2023-02-11T18:59:07.592Z,20.70
2023-02-11T19:01:34.355Z,19.17
2023-02-11T19:04:04.397Z,19.40
2023-02-11T19:06:34.079Z,19.13
2023-02-11T19:09:04.468Z,17.13
2023-02-11T19:11:47.661Z,17.97
2023-02-11T19:14:19.884Z,16.57
2023-02-11T19:16:47.882Z,16.13
2023-02-11T19:19:14.497Z,16.60
2023-02-11T19:21:43.496Z,15.13
2023-02-11T19:24:10.581Z,15.50
2023-02-11T19:26:37.491Z,15.33
2023-02-11T19:29:05.486Z,14.67
2023-02-11T19:31:32.722Z,13.80
2023-02-11T19:34:00.348Z,14.70
2023-02-11T19:36:26.849Z,13.90
2023-02-11T19:38:53.703Z,14.27
2023-02-11T19:41:22.519Z,14.40
2023-02-11T19:43:57.444Z,13.23
2023-02-11T19:46:25.132Z,14.03
2023-02-11T19:48:52.332Z,13.07
2023-02-11T19:51:19.457Z,13.03
2023-02-11T19:53:46.768Z,13.40
2023-02-11T19:56:14.141Z,13.80
2023-02-11T19:58:41.251Z,12.20
2023-02-11T20:01:09.881Z,13.40
2023-02-11T20:03:36.958Z,12.77
2023-02-11T20:06:12.536Z,14.03
2023-02-11T20:08:39.263Z,13.13
2023-02-11T20:11:14.322Z,13.00
2023-02-11T20:13:41.058Z,13.27
2023-02-11T20:16:10.578Z,12.77
2023-02-11T20:18:37.689Z,13.20
2023-02-11T20:21:12.574Z,12.93
2023-02-11T20:23:40.353Z,13.57
2023-02-11T20:26:12.250Z,13.70
2023-02-11T20:28:38.919Z,12.47
2023-02-11T20:31:06.067Z,12.57
2023-02-11T20:33:33.232Z,13.50
2023-02-11T20:36:01.846Z,12.43
2023-02-11T20:38:28.627Z,13.33
2023-02-11T20:40:55.907Z,12.27
2023-02-11T20:43:22.977Z,11.90
2023-02-11T20:45:50.078Z,11.30
2023-02-11T20:48:16.851Z,11.77
2023-02-11T20:50:43.340Z,10.70
2023-02-11T20:53:10.677Z,10.97
2023-02-11T20:55:38.563Z,11.97
2023-02-11T20:58:06.876Z,11.47
2023-02-11T21:00:35.785Z,11.83
2023-02-11T21:03:03.024Z,10.40
2023-02-11T21:05:29.826Z,10.17
2023-02-11T21:07:57.235Z,10.27
2023-02-11T21:10:23.801Z,10.73
2023-02-11T21:12:50.258Z,11.37
2023-02-11T21:15:16.831Z,10.30
2023-02-11T21:17:43.308Z,10.60
2023-02-11T21:20:10.160Z,10.23
2023-02-11T21:22:36.704Z,9.87
2023-02-11T21:25:03.218Z,10.17
2023-02-11T21:27:33.057Z,9.93
2023-02-11T21:30:01.271Z,8.00
2023-02-11T21:32:28.033Z,6.50
2023-02-11T21:34:54.602Z,4.93
2023-02-11T21:37:23.243Z,3.10
2023-02-11T21:39:49.972Z,2.20
2023-02-11T21:42:16.551Z,1.80
2023-02-11T21:44:43.151Z,1.73
2023-02-11T21:47:09.725Z,1.20
2023-02-11T21:49:36.280Z,1.57
2023-02-11T21:52:02.774Z,1.17
2023-02-11T21:54:31.986Z,1.37
2023-02-11T21:56:59.737Z,1.60
2023-02-11T21:59:26.242Z,1.20
2023-02-11T22:01:52.811Z,1.20
2023-02-11T22:04:19.341Z,1.30
2023-02-11T22:06:45.898Z,1.60
2023-02-11T22:09:12.356Z,1.10
2023-02-11T22:11:38.939Z,1.27
2023-02-11T22:14:05.650Z,1.50
2023-02-11T22:16:32.509Z,1.57
2023-02-11T22:18:59.603Z,1.37
2023-02-11T22:21:27.763Z,1.80
2023-02-11T22:23:54.771Z,1.20
2023-02-11T22:26:23.970Z,1.20
2023-02-11T22:28:51.185Z,1.30
2023-02-11T22:31:23.901Z,1.60
2023-02-11T22:33:50.485Z,1.70
2023-02-11T22:36:26.057Z,1.87
2023-02-11T22:38:53.019Z,1.30
2023-02-11T22:41:19.973Z,1.43
2023-02-11T22:43:46.618Z,1.33
2023-02-11T22:46:15.905Z,1.00
2023-02-11T22:48:42.949Z,1.03
2023-02-11T22:51:19.283Z,1.17
2023-02-11T22:53:52.583Z,1.30
2023-02-11T22:56:19.461Z,1.30
2023-02-11T22:58:46.552Z,0.97
2023-02-11T23:01:13.545Z,1.10
2023-02-11T23:03:40.556Z,1.13
2023-02-11T23:06:07.608Z,1.00
2023-02-11T23:08:34.932Z,0.83
2023-02-11T23:11:06.154Z,1.03
2023-02-11T23:13:34.708Z,0.70
2023-02-11T23:16:04.735Z,0.80
2023-02-11T23:18:31.519Z,0.87
2023-02-11T23:21:04.029Z,1.17
2023-02-11T23:23:30.609Z,1.30
2023-02-11T23:25:57.533Z,1.27
2023-02-11T23:28:24.242Z,1.00
2023-02-11T23:30:50.827Z,1.03
2023-02-11T23:33:17.275Z,1.20
2023-02-11T23:35:43.765Z,1.00
2023-02-11T23:38:10.258Z,1.10
2023-02-11T23:40:36.718Z,1.20
2023-02-11T23:43:03.605Z,1.43
2023-02-11T23:45:30.189Z,0.90
2023-02-11T23:48:00.120Z,1.00
2023-02-11T23:50:26.547Z,1.13
2023-02-11T23:52:53.003Z,0.90
2023-02-11T23:55:19.630Z,1.10
2023-02-11T23:57:46.088Z,1.20
